N515CC KSFO-KMMH
Flight info
| Callsign | N515CC |
|---|---|
| Flight time | 0h 34m |
| Altitude | 31000 |
| Route | TRUKN2 SYRAH NIKOL V381 BIH |
| Aircraft | CL60/M-SADE3FGHIJ3J4J7P2RWXY/HB1D1 |
Departure
| Time | 2026-04-24 20:32 |
|---|---|
| Airport | San Francisco International Airport (KSFO) |
Arrival
| Time | 2026-04-24 21:06 |
|---|---|
| Airport | Mammoth Yosemite Airport (KMMH) |
| Time | Latitude | Longitude | Altitude | Speed | Heading |
|---|---|---|---|---|---|
| 2026-04-24 20:18 | 37.62725 | -122.38384 | 25 ft | 0 kts | 297° |
| 2026-04-24 20:23 | 37.62728 | -122.38392 | 24 ft | 1 kts | 297° |
| 2026-04-24 20:24 | 37.62729 | -122.38393 | 24 ft | 0 kts | 297° |
| 2026-04-24 20:24 | 37.62733 | -122.38403 | 24 ft | 0 kts | 297° |
| 2026-04-24 20:27 | 37.62734 | -122.38409 | 24 ft | 2 kts | 285° |
| 2026-04-24 20:27 | 37.62710 | -122.38446 | 25 ft | 8 kts | 210° |
| 2026-04-24 20:27 | 37.62646 | -122.38426 | 25 ft | 15 kts | 117° |
| 2026-04-24 20:27 | 37.62581 | -122.38271 | 26 ft | 28 kts | 118° |
| 2026-04-24 20:28 | 37.62464 | -122.37991 | 26 ft | 40 kts | 118° |
| 2026-04-24 20:28 | 37.62332 | -122.37678 | 23 ft | 40 kts | 118° |
| 2026-04-24 20:28 | 37.62216 | -122.37402 | 20 ft | 30 kts | 118° |
| 2026-04-24 20:28 | 37.62128 | -122.37197 | 18 ft | 24 kts | 118° |
| 2026-04-24 20:29 | 37.62083 | -122.37089 | 17 ft | 29 kts | 118° |
| 2026-04-24 20:29 | 37.61928 | -122.36715 | 14 ft | 44 kts | 117° |
| 2026-04-24 20:29 | 37.61778 | -122.36357 | 13 ft | 47 kts | 118° |
| 2026-04-24 20:29 | 37.61622 | -122.35986 | 12 ft | 48 kts | 118° |
| 2026-04-24 20:30 | 37.61500 | -122.35701 | 11 ft | 12 kts | 125° |
| 2026-04-24 20:30 | 37.61451 | -122.35676 | 11 ft | 0 kts | 196° |
| 2026-04-24 20:30 | 37.61435 | -122.35683 | 11 ft | 9 kts | 205° |
| 2026-04-24 20:30 | 37.61403 | -122.35703 | 11 ft | 7 kts | 206° |
| 2026-04-24 20:31 | 37.61366 | -122.35744 | 11 ft | 3 kts | 286° |
| 2026-04-24 20:31 | 37.61381 | -122.35782 | 11 ft | 6 kts | 298° |
| 2026-04-24 20:31 | 37.61466 | -122.35984 | 12 ft | 66 kts | 298° |
| 2026-04-24 20:31 | 37.61858 | -122.36907 | 97 ft | 162 kts | 298° |
| 2026-04-24 20:32 | 37.62445 | -122.38236 | 966 ft | 189 kts | 302° |
| 2026-04-24 20:32 | 37.63492 | -122.39298 | 1597 ft | 202 kts | 344° |
| 2026-04-24 20:32 | 37.64849 | -122.39091 | 2131 ft | 202 kts | 32° |
| 2026-04-24 20:32 | 37.65703 | -122.37739 | 2866 ft | 202 kts | 65° |
| 2026-04-24 20:33 | 37.66270 | -122.36140 | 3605 ft | 200 kts | 67° |
| 2026-04-24 20:33 | 37.66838 | -122.34529 | 4407 ft | 216 kts | 67° |
| 2026-04-24 20:33 | 37.67458 | -122.32783 | 5791 ft | 230 kts | 67° |
| 2026-04-24 20:33 | 37.68113 | -122.30961 | 7172 ft | 244 kts | 66° |
| 2026-04-24 20:34 | 37.68834 | -122.29007 | 8443 ft | 261 kts | 64° |
| 2026-04-24 20:34 | 37.69648 | -122.26910 | 9678 ft | 279 kts | 63° |
| 2026-04-24 20:34 | 37.70508 | -122.24708 | 11072 ft | 289 kts | 63° |
| 2026-04-24 20:34 | 37.71398 | -122.22433 | 12489 ft | 297 kts | 63° |
| 2026-04-24 20:35 | 37.72431 | -122.20130 | 13424 ft | 317 kts | 57° |
| 2026-04-24 20:35 | 37.73667 | -122.17746 | 14480 ft | 332 kts | 56° |
| 2026-04-24 20:35 | 37.74945 | -122.15282 | 15480 ft | 344 kts | 56° |
| 2026-04-24 20:35 | 37.76263 | -122.12738 | 16474 ft | 355 kts | 57° |
| 2026-04-24 20:36 | 37.77623 | -122.10109 | 17478 ft | 363 kts | 57° |
| 2026-04-24 20:36 | 37.79003 | -122.07440 | 18481 ft | 369 kts | 57° |
| 2026-04-24 20:36 | 37.80404 | -122.04727 | 19476 ft | 374 kts | 57° |
| 2026-04-24 20:36 | 37.81818 | -122.01976 | 20480 ft | 377 kts | 58° |
| 2026-04-24 20:37 | 37.82896 | -121.98954 | 21513 ft | 378 kts | 73° |
| 2026-04-24 20:37 | 37.83503 | -121.95780 | 22488 ft | 379 kts | 77° |
| 2026-04-24 20:37 | 37.84097 | -121.92561 | 23504 ft | 378 kts | 76° |
| 2026-04-24 20:37 | 37.84705 | -121.89289 | 24247 ft | 388 kts | 77° |
| 2026-04-24 20:38 | 37.85327 | -121.85926 | 24607 ft | 405 kts | 77° |
| 2026-04-24 20:38 | 37.85983 | -121.82389 | 25147 ft | 415 kts | 77° |
| 2026-04-24 20:38 | 37.86639 | -121.78835 | 25780 ft | 422 kts | 77° |
| 2026-04-24 20:38 | 37.87306 | -121.75224 | 26488 ft | 425 kts | 77° |
| 2026-04-24 20:39 | 37.87982 | -121.71556 | 27190 ft | 429 kts | 77° |
| 2026-04-24 20:39 | 37.88654 | -121.67906 | 27786 ft | 433 kts | 77° |
| 2026-04-24 20:39 | 37.89338 | -121.64181 | 28423 ft | 437 kts | 77° |
| 2026-04-24 20:39 | 37.90026 | -121.60426 | 29026 ft | 440 kts | 77° |
| 2026-04-24 20:40 | 37.90720 | -121.56638 | 29589 ft | 443 kts | 77° |
| 2026-04-24 20:40 | 37.91415 | -121.52832 | 30109 ft | 447 kts | 77° |
| 2026-04-24 20:40 | 37.92106 | -121.49045 | 30584 ft | 450 kts | 77° |
| 2026-04-24 20:40 | 37.92815 | -121.45149 | 30883 ft | 457 kts | 77° |
| 2026-04-24 20:41 | 37.94251 | -121.37241 | 30961 ft | 461 kts | 77° |
| 2026-04-24 20:41 | 37.95673 | -121.29382 | 30954 ft | 457 kts | 78° |
| 2026-04-24 20:42 | 37.97075 | -121.21598 | 30960 ft | 456 kts | 78° |
| 2026-04-24 20:42 | 37.98481 | -121.13757 | 30958 ft | 455 kts | 77° |
| 2026-04-24 20:43 | 37.99133 | -121.05855 | 30939 ft | 458 kts | 91° |
| 2026-04-24 20:43 | 37.99122 | -121.01749 | 30941 ft | 470 kts | 90° |
| 2026-04-24 20:43 | 37.99117 | -120.97598 | 30929 ft | 480 kts | 90° |
| 2026-04-24 20:44 | 37.99103 | -120.89013 | 30941 ft | 493 kts | 90° |
| 2026-04-24 20:44 | 37.99085 | -120.80296 | 30945 ft | 497 kts | 90° |
| 2026-04-24 20:45 | 37.99062 | -120.71582 | 30959 ft | 497 kts | 90° |
| 2026-04-24 20:45 | 37.99032 | -120.62817 | 30948 ft | 498 kts | 91° |
| 2026-04-24 20:46 | 37.98997 | -120.54078 | 30950 ft | 498 kts | 90° |
| 2026-04-24 20:46 | 37.98955 | -120.45330 | 30957 ft | 498 kts | 90° |
| 2026-04-24 20:47 | 37.98908 | -120.36577 | 30977 ft | 500 kts | 90° |
| 2026-04-24 20:47 | 37.98854 | -120.27766 | 30991 ft | 500 kts | 91° |
| 2026-04-24 20:48 | 37.98793 | -120.19006 | 31000 ft | 501 kts | 91° |
| 2026-04-24 20:48 | 37.98726 | -120.10222 | 31013 ft | 501 kts | 91° |
| 2026-04-24 20:49 | 37.98653 | -120.01387 | 31016 ft | 500 kts | 91° |
| 2026-04-24 20:49 | 37.98573 | -119.92586 | 31024 ft | 501 kts | 91° |
| 2026-04-24 20:50 | 37.98487 | -119.83807 | 31016 ft | 501 kts | 91° |
| 2026-04-24 20:50 | 37.98395 | -119.75026 | 30710 ft | 505 kts | 91° |
| 2026-04-24 20:51 | 37.98345 | -119.70568 | 30279 ft | 504 kts | 91° |
| 2026-04-24 20:51 | 37.98294 | -119.66137 | 29694 ft | 497 kts | 91° |
| 2026-04-24 20:51 | 37.98244 | -119.61894 | 29150 ft | 481 kts | 91° |
| 2026-04-24 20:51 | 37.98192 | -119.57707 | 28637 ft | 471 kts | 91° |
| 2026-04-24 20:52 | 37.98141 | -119.53619 | 28118 ft | 463 kts | 90° |
| 2026-04-24 20:52 | 37.98089 | -119.49563 | 27602 ft | 459 kts | 90° |
| 2026-04-24 20:52 | 37.98036 | -119.45558 | 27094 ft | 455 kts | 91° |
| 2026-04-24 20:52 | 37.97982 | -119.41554 | 26601 ft | 452 kts | 91° |
| 2026-04-24 20:53 | 37.97927 | -119.37620 | 26108 ft | 449 kts | 91° |
| 2026-04-24 20:53 | 37.97870 | -119.33691 | 25628 ft | 446 kts | 92° |
| 2026-04-24 20:53 | 37.97812 | -119.29766 | 25129 ft | 443 kts | 91° |
| 2026-04-24 20:53 | 37.97755 | -119.25923 | 24634 ft | 440 kts | 92° |
| 2026-04-24 20:54 | 37.97697 | -119.22040 | 24162 ft | 437 kts | 91° |
| 2026-04-24 20:54 | 37.97637 | -119.18211 | 23689 ft | 435 kts | 92° |
| 2026-04-24 20:54 | 37.97577 | -119.14432 | 23241 ft | 432 kts | 92° |
| 2026-04-24 20:54 | 37.97515 | -119.10611 | 22761 ft | 430 kts | 92° |
| 2026-04-24 20:55 | 37.97452 | -119.06852 | 22297 ft | 426 kts | 91° |
| 2026-04-24 20:55 | 37.97390 | -119.03168 | 21831 ft | 421 kts | 91° |
| 2026-04-24 20:55 | 37.97327 | -118.99503 | 21372 ft | 418 kts | 91° |
| 2026-04-24 20:55 | 37.97263 | -118.95815 | 20908 ft | 414 kts | 91° |
| 2026-04-24 20:56 | 37.97198 | -118.92203 | 20460 ft | 410 kts | 91° |
| 2026-04-24 20:56 | 37.97133 | -118.88625 | 20011 ft | 405 kts | 91° |
| 2026-04-24 20:56 | 37.97068 | -118.85092 | 19576 ft | 401 kts | 91° |
| 2026-04-24 20:56 | 37.97002 | -118.81602 | 19117 ft | 397 kts | 91° |
| 2026-04-24 20:57 | 37.96936 | -118.78154 | 18671 ft | 393 kts | 91° |
| 2026-04-24 20:57 | 37.96762 | -118.74712 | 18227 ft | 389 kts | 98° |
| 2026-04-24 20:57 | 37.95985 | -118.71455 | 17743 ft | 386 kts | 114° |
| 2026-04-24 20:57 | 37.94569 | -118.68613 | 17260 ft | 384 kts | 129° |
| 2026-04-24 20:58 | 37.92614 | -118.66335 | 16743 ft | 384 kts | 144° |
| 2026-04-24 20:58 | 37.91002 | -118.65166 | 16387 ft | 381 kts | 154° |
| 2026-04-24 20:58 | 37.88560 | -118.63843 | 16001 ft | 381 kts | 157° |
| 2026-04-24 20:58 | 37.86135 | -118.62542 | 15590 ft | 380 kts | 157° |
| 2026-04-24 20:59 | 37.83722 | -118.61246 | 15185 ft | 376 kts | 157° |
| 2026-04-24 20:59 | 37.81336 | -118.59963 | 14767 ft | 363 kts | 157° |
| 2026-04-24 20:59 | 37.79076 | -118.58749 | 14386 ft | 350 kts | 157° |
| 2026-04-24 20:59 | 37.76876 | -118.57568 | 14006 ft | 339 kts | 157° |
| 2026-04-24 21:00 | 37.74750 | -118.56428 | 13643 ft | 329 kts | 158° |
| 2026-04-24 21:00 | 37.72657 | -118.55306 | 13281 ft | 320 kts | 158° |
| 2026-04-24 21:00 | 37.70639 | -118.54224 | 12924 ft | 313 kts | 158° |
| 2026-04-24 21:00 | 37.68659 | -118.53163 | 12578 ft | 306 kts | 158° |
| 2026-04-24 21:01 | 37.66712 | -118.52127 | 12255 ft | 309 kts | 159° |
| 2026-04-24 21:01 | 37.64632 | -118.51508 | 11838 ft | 307 kts | 178° |
| 2026-04-24 21:01 | 37.62542 | -118.51857 | 11433 ft | 300 kts | 199° |
| 2026-04-24 21:01 | 37.60743 | -118.53093 | 11140 ft | 291 kts | 220° |
| 2026-04-24 21:02 | 37.59436 | -118.54934 | 10848 ft | 283 kts | 239° |
| 2026-04-24 21:02 | 37.58570 | -118.57141 | 10677 ft | 276 kts | 246° |
| 2026-04-24 21:02 | 37.57830 | -118.59329 | 10565 ft | 271 kts | 247° |
| 2026-04-24 21:02 | 37.57139 | -118.61510 | 10407 ft | 261 kts | 254° |
| 2026-04-24 21:03 | 37.56988 | -118.63717 | 10274 ft | 252 kts | 275° |
| 2026-04-24 21:03 | 37.57425 | -118.65847 | 9895 ft | 250 kts | 288° |
| 2026-04-24 21:03 | 37.57993 | -118.67824 | 9533 ft | 232 kts | 287° |
| 2026-04-24 21:03 | 37.58515 | -118.69684 | 9213 ft | 217 kts | 286° |
| 2026-04-24 21:04 | 37.58990 | -118.71401 | 8918 ft | 196 kts | 285° |
| 2026-04-24 21:04 | 37.59417 | -118.72945 | 8715 ft | 182 kts | 285° |
| 2026-04-24 21:04 | 37.59816 | -118.74404 | 8450 ft | 170 kts | 286° |
| 2026-04-24 21:04 | 37.60186 | -118.75748 | 8263 ft | 158 kts | 285° |
| 2026-04-24 21:05 | 37.60543 | -118.77035 | 8047 ft | 153 kts | 284° |
| 2026-04-24 21:05 | 37.60886 | -118.78275 | 7831 ft | 147 kts | 284° |
| 2026-04-24 21:05 | 37.61205 | -118.79452 | 7660 ft | 155 kts | 283° |
| 2026-04-24 21:05 | 37.61557 | -118.80746 | 7454 ft | 156 kts | 284° |
| 2026-04-24 21:06 | 37.61901 | -118.82002 | 7271 ft | 151 kts | 282° |
| 2026-04-24 21:06 | 37.62225 | -118.83206 | 7133 ft | 132 kts | 282° |
| 2026-04-24 21:06 | 37.62469 | -118.84109 | 7155 ft | 72 kts | 286° |
| 2026-04-24 21:06 | 37.62592 | -118.84557 | 7165 ft | 44 kts | 288° |
| 2026-04-24 21:07 | 37.62626 | -118.84684 | 7167 ft | 0 kts | 289° |